sensor_id;sensor_type;location;lat;lon;timestamp;pressure;altitude;pressure_sealevel;temperature;humidity
70411;BME280;57832;46.038;11.398;2023-04-26T00:02:06;96648.22;;;4.15;100.00
70411;BME280;57832;46.038;11.398;2023-04-26T00:04:32;96655.63;;;4.44;100.00
70411;BME280;57832;46.038;11.398;2023-04-26T00:06:59;96661.22;;;4.47;100.00
70411;BME280;57832;46.038;11.398;2023-04-26T00:09:24;96660.09;;;4.68;100.00
70411;BME280;57832;46.038;11.398;2023-04-26T00:11:50;96654.72;;;4.31;100.00
70411;BME280;57832;46.038;11.398;2023-04-26T00:14:16;96658.28;;;3.98;100.00
70411;BME280;57832;46.038;11.398;2023-04-26T00:16:42;96660.16;;;3.84;100.00
70411;BME280;57832;46.038;11.398;2023-04-26T00:19:07;96660.34;;;3.83;100.00
70411;BME280;57832;46.038;11.398;2023-04-26T00:21:34;96661.91;;;3.97;100.00
70411;BME280;57832;46.038;11.398;2023-04-26T00:23:59;96663.31;;;3.93;100.00
70411;BME280;57832;46.038;11.398;2023-04-26T00:26:25;96661.97;;;4.23;100.00
70411;BME280;57832;46.038;11.398;2023-04-26T00:28:50;96671.06;;;4.00;100.00
70411;BME280;57832;46.038;11.398;2023-04-26T00:31:16;96674.31;;;3.82;100.00
70411;BME280;57832;46.038;11.398;2023-04-26T00:33:42;96671.09;;;3.93;100.00
70411;BME280;57832;46.038;11.398;2023-04-26T00:36:09;96670.47;;;3.98;100.00
70411;BME280;57832;46.038;11.398;2023-04-26T00:38:34;96669.81;;;4.16;100.00
70411;BME280;57832;46.038;11.398;2023-04-26T00:41:00;96673.78;;;4.18;100.00
70411;BME280;57832;46.038;11.398;2023-04-26T00:43:26;96670.19;;;4.13;100.00
70411;BME280;57832;46.038;11.398;2023-04-26T00:45:52;96672.38;;;3.71;100.00
70411;BME280;57832;46.038;11.398;2023-04-26T00:48:18;96673.81;;;3.46;100.00
70411;BME280;57832;46.038;11.398;2023-04-26T00:50:44;96675.00;;;3.44;100.00
70411;BME280;57832;46.038;11.398;2023-04-26T00:53:09;96679.13;;;3.72;100.00
70411;BME280;57832;46.038;11.398;2023-04-26T00:55:39;96676.38;;;3.53;100.00
70411;BME280;57832;46.038;11.398;2023-04-26T00:58:05;96678.44;;;3.38;100.00
70411;BME280;57832;46.038;11.398;2023-04-26T01:00:31;96681.19;;;3.56;100.00
70411;BME280;57832;46.038;11.398;2023-04-26T01:02:57;96676.25;;;3.21;100.00
70411;BME280;57832;46.038;11.398;2023-04-26T01:05:22;96669.44;;;3.47;100.00
70411;BME280;57832;46.038;11.398;2023-04-26T01:07:48;96666.47;;;3.30;100.00
70411;BME280;57832;46.038;11.398;2023-04-26T01:10:14;96672.09;;;3.92;100.00
70411;BME280;57832;46.038;11.398;2023-04-26T01:12:39;96668.44;;;3.48;100.00
70411;BME280;57832;46.038;11.398;2023-04-26T01:15:06;96669.69;;;3.32;100.00
70411;BME280;57832;46.038;11.398;2023-04-26T01:17:31;96674.69;;;3.20;100.00
70411;BME280;57832;46.038;11.398;2023-04-26T01:19:57;96683.56;;;3.64;100.00
70411;BME280;57832;46.038;11.398;2023-04-26T01:22:23;96681.03;;;3.31;100.00
70411;BME280;57832;46.038;11.398;2023-04-26T01:24:53;96681.44;;;3.21;100.00
70411;BME280;57832;46.038;11.398;2023-04-26T01:27:19;96683.38;;;3.53;100.00
70411;BME280;57832;46.038;11.398;2023-04-26T01:29:45;96686.38;;;3.63;100.00
70411;BME280;57832;46.038;11.398;2023-04-26T01:32:11;96689.94;;;3.62;100.00
70411;BME280;57832;46.038;11.398;2023-04-26T01:34:37;96690.53;;;3.77;100.00
70411;BME280;57832;46.038;11.398;2023-04-26T01:37:02;96692.16;;;3.51;100.00
70411;BME280;57832;46.038;11.398;2023-04-26T01:39:28;96672.28;;;3.25;100.00
70411;BME280;57832;46.038;11.398;2023-04-26T01:41:56;96689.34;;;3.53;100.00
70411;BME280;57832;46.038;11.398;2023-04-26T01:44:22;96701.31;;;3.67;100.00
70411;BME280;57832;46.038;11.398;2023-04-26T01:46:48;96690.69;;;3.76;100.00
70411;BME280;57832;46.038;11.398;2023-04-26T01:49:13;96693.53;;;3.61;100.00
70411;BME280;57832;46.038;11.398;2023-04-26T01:51:39;96692.78;;;3.47;100.00
70411;BME280;57832;46.038;11.398;2023-04-26T01:54:04;96702.78;;;3.10;100.00
70411;BME280;57832;46.038;11.398;2023-04-26T01:56:30;96701.38;;;3.27;100.00
70411;BME280;57832;46.038;11.398;2023-04-26T01:58:56;96698.53;;;3.49;100.00
70411;BME280;57832;46.038;11.398;2023-04-26T02:01:23;96704.56;;;2.82;100.00
70411;BME280;57832;46.038;11.398;2023-04-26T02:03:49;96703.94;;;2.60;100.00
70411;BME280;57832;46.038;11.398;2023-04-26T02:06:14;96698.19;;;2.98;100.00
70411;BME280;57832;46.038;11.398;2023-04-26T02:08:40;96702.78;;;3.23;100.00
70411;BME280;57832;46.038;11.398;2023-04-26T02:11:06;96695.59;;;3.32;100.00
70411;BME280;57832;46.038;11.398;2023-04-26T02:13:31;96695.78;;;3.24;100.00
70411;BME280;57832;46.038;11.398;2023-04-26T02:15:57;96689.63;;;2.84;100.00
70411;BME280;57832;46.038;11.398;2023-04-26T02:18:23;96692.22;;;3.05;100.00
70411;BME280;57832;46.038;11.398;2023-04-26T02:20:49;96686.25;;;2.84;100.00
70411;BME280;57832;46.038;11.398;2023-04-26T02:23:15;96694.03;;;2.97;100.00
70411;BME280;57832;46.038;11.398;2023-04-26T02:25:40;96691.97;;;3.33;100.00
70411;BME280;57832;46.038;11.398;2023-04-26T02:28:06;96681.84;;;3.05;100.00
70411;BME280;57832;46.038;11.398;2023-04-26T02:30:32;96675.06;;;3.04;100.00
70411;BME280;57832;46.038;11.398;2023-04-26T02:32:58;96675.88;;;2.97;100.00
70411;BME280;57832;46.038;11.398;2023-04-26T02:35:24;96680.03;;;3.39;100.00
70411;BME280;57832;46.038;11.398;2023-04-26T02:37:49;96681.25;;;3.29;100.00
70411;BME280;57832;46.038;11.398;2023-04-26T02:40:19;96676.88;;;2.96;100.00
70411;BME280;57832;46.038;11.398;2023-04-26T02:42:45;96688.31;;;2.20;100.00
70411;BME280;57832;46.038;11.398;2023-04-26T02:45:11;96690.16;;;2.53;100.00
70411;BME280;57832;46.038;11.398;2023-04-26T02:47:37;96681.84;;;2.84;100.00
70411;BME280;57832;46.038;11.398;2023-04-26T02:50:06;96686.41;;;2.89;100.00
70411;BME280;57832;46.038;11.398;2023-04-26T02:52:34;96689.59;;;2.64;100.00
70411;BME280;57832;46.038;11.398;2023-04-26T02:55:00;96685.41;;;2.57;100.00
70411;BME280;57832;46.038;11.398;2023-04-26T02:57:26;96691.16;;;2.39;100.00
70411;BME280;57832;46.038;11.398;2023-04-26T02:59:52;96689.41;;;2.59;100.00
70411;BME280;57832;46.038;11.398;2023-04-26T03:02:17;96683.25;;;2.74;100.00
70411;BME280;57832;46.038;11.398;2023-04-26T03:04:43;96691.22;;;2.92;100.00
70411;BME280;57832;46.038;11.398;2023-04-26T03:07:08;96691.81;;;2.94;100.00
70411;BME280;57832;46.038;11.398;2023-04-26T03:09:34;96692.00;;;2.66;100.00
70411;BME280;57832;46.038;11.398;2023-04-26T03:12:02;96688.63;;;2.65;100.00
70411;BME280;57832;46.038;11.398;2023-04-26T03:14:28;96692.38;;;2.56;100.00
70411;BME280;57832;46.038;11.398;2023-04-26T03:16:53;96685.81;;;2.60;100.00
70411;BME280;57832;46.038;11.398;2023-04-26T03:19:19;96681.59;;;2.39;100.00
70411;BME280;57832;46.038;11.398;2023-04-26T03:21:45;96674.47;;;2.68;100.00
70411;BME280;57832;46.038;11.398;2023-04-26T03:24:10;96677.28;;;2.87;100.00
70411;BME280;57832;46.038;11.398;2023-04-26T03:26:36;96678.28;;;2.92;100.00
70411;BME280;57832;46.038;11.398;2023-04-26T03:29:02;96679.25;;;2.91;100.00
70411;BME280;57832;46.038;11.398;2023-04-26T03:31:28;96675.25;;;2.68;100.00
70411;BME280;57832;46.038;11.398;2023-04-26T03:33:53;96681.06;;;2.91;100.00
70411;BME280;57832;46.038;11.398;2023-04-26T03:36:19;96683.03;;;2.89;100.00
70411;BME280;57832;46.038;11.398;2023-04-26T03:38:44;96672.88;;;2.67;100.00
70411;BME280;57832;46.038;11.398;2023-04-26T03:41:10;96679.47;;;2.90;100.00
70411;BME280;57832;46.038;11.398;2023-04-26T03:43:36;96684.44;;;3.05;100.00
70411;BME280;57832;46.038;11.398;2023-04-26T03:46:01;96683.66;;;2.77;100.00
70411;BME280;57832;46.038;11.398;2023-04-26T03:48:27;96683.03;;;2.68;100.00
70411;BME280;57832;46.038;11.398;2023-04-26T03:50:52;96696.59;;;2.77;100.00
70411;BME280;57832;46.038;11.398;2023-04-26T03:53:18;96691.22;;;2.92;100.00
70411;BME280;57832;46.038;11.398;2023-04-26T03:55:44;96699.38;;;2.96;100.00
70411;BME280;57832;46.038;11.398;2023-04-26T03:58:09;96696.41;;;2.72;100.00
70411;BME280;57832;46.038;11.398;2023-04-26T04:00:39;96703.53;;;2.50;100.00
70411;BME280;57832;46.038;11.398;2023-04-26T04:03:05;96707.44;;;2.19;100.00
70411;BME280;57832;46.038;11.398;2023-04-26T04:05:31;96711.22;;;2.23;100.00
70411;BME280;57832;46.038;11.398;2023-04-26T04:07:57;96719.19;;;2.22;100.00
70411;BME280;57832;46.038;11.398;2023-04-26T04:10:22;96715.72;;;2.76;100.00
70411;BME280;57832;46.038;11.398;2023-04-26T04:12:51;96728.22;;;2.53;100.00
70411;BME280;57832;46.038;11.398;2023-04-26T04:15:18;96728.25;;;2.73;100.00
70411;BME280;57832;46.038;11.398;2023-04-26T04:17:44;96735.03;;;2.74;100.00
70411;BME280;57832;46.038;11.398;2023-04-26T04:20:10;96738.63;;;2.73;100.00
70411;BME280;57832;46.038;11.398;2023-04-26T04:22:36;96737.44;;;2.82;100.00
70411;BME280;57832;46.038;11.398;2023-04-26T04:25:07;96738.84;;;2.78;100.00
70411;BME280;57832;46.038;11.398;2023-04-26T04:27:35;96743.59;;;2.74;100.00
70411;BME280;57832;46.038;11.398;2023-04-26T04:30:05;96741.19;;;2.66;100.00
70411;BME280;57832;46.038;11.398;2023-04-26T04:32:35;96737.41;;;2.68;100.00
70411;BME280;57832;46.038;11.398;2023-04-26T04:35:01;96741.94;;;2.46;100.00
70411;BME280;57832;46.038;11.398;2023-04-26T04:37:27;96745.56;;;2.52;100.00
70411;BME280;57832;46.038;11.398;2023-04-26T04:39:53;96759.72;;;2.63;100.00
70411;BME280;57832;46.038;11.398;2023-04-26T04:42:19;96760.53;;;2.77;100.00
70411;BME280;57832;46.038;11.398;2023-04-26T04:44:45;96768.94;;;2.79;100.00
70411;BME280;57832;46.038;11.398;2023-04-26T04:47:12;96771.59;;;2.37;100.00
70411;BME280;57832;46.038;11.398;2023-04-26T04:49:37;96769.69;;;2.73;100.00
70411;BME280;57832;46.038;11.398;2023-04-26T04:52:04;96776.38;;;2.33;100.00
70411;BME280;57832;46.038;11.398;2023-04-26T04:54:29;96772.06;;;2.67;100.00
70411;BME280;57832;46.038;11.398;2023-04-26T04:56:55;96770.75;;;3.12;100.00
70411;BME280;57832;46.038;11.398;2023-04-26T04:59:22;96773.69;;;2.68;100.00
70411;BME280;57832;46.038;11.398;2023-04-26T05:01:48;96776.47;;;2.18;100.00
70411;BME280;57832;46.038;11.398;2023-04-26T05:04:13;96781.53;;;2.33;100.00
70411;BME280;57832;46.038;11.398;2023-04-26T05:06:39;96785.91;;;2.33;100.00
70411;BME280;57832;46.038;11.398;2023-04-26T05:09:05;96797.22;;;2.25;100.00
70411;BME280;57832;46.038;11.398;2023-04-26T05:11:31;96807.09;;;2.50;100.00
70411;BME280;57832;46.038;11.398;2023-04-26T05:13:57;96807.09;;;2.50;100.00
70411;BME280;57832;46.038;11.398;2023-04-26T05:16:23;96798.56;;;2.63;100.00
70411;BME280;57832;46.038;11.398;2023-04-26T05:18:49;96811.88;;;2.53;100.00
70411;BME280;57832;46.038;11.398;2023-04-26T05:21:14;96807.19;;;2.90;100.00
70411;BME280;57832;46.038;11.398;2023-04-26T05:23:40;96804.25;;;3.07;100.00
70411;BME280;57832;46.038;11.398;2023-04-26T05:26:06;96810.22;;;3.00;100.00
70411;BME280;57832;46.038;11.398;2023-04-26T05:28:32;96804.63;;;3.04;100.00
70411;BME280;57832;46.038;11.398;2023-04-26T05:30:59;96811.63;;;3.10;100.00
70411;BME280;57832;46.038;11.398;2023-04-26T05:33:26;96806.03;;;2.99;100.00
70411;BME280;57832;46.038;11.398;2023-04-26T05:35:52;96809.81;;;3.10;100.00
70411;BME280;57832;46.038;11.398;2023-04-26T05:38:18;96806.00;;;2.93;100.00
70411;BME280;57832;46.038;11.398;2023-04-26T05:40:44;96813.22;;;2.97;100.00
70411;BME280;57832;46.038;11.398;2023-04-26T05:43:12;96813.84;;;3.26;100.00
70411;BME280;57832;46.038;11.398;2023-04-26T05:45:38;96819.03;;;3.26;100.00
70411;BME280;57832;46.038;11.398;2023-04-26T05:48:03;96811.66;;;3.37;100.00
70411;BME280;57832;46.038;11.398;2023-04-26T05:50:29;96817.25;;;3.67;100.00
70411;BME280;57832;46.038;11.398;2023-04-26T05:52:55;96817.97;;;4.01;100.00
70411;BME280;57832;46.038;11.398;2023-04-26T05:55:21;96823.81;;;4.55;100.00
70411;BME280;57832;46.038;11.398;2023-04-26T05:57:46;96821.13;;;4.75;100.00
70411;BME280;57832;46.038;11.398;2023-04-26T06:00:12;96822.00;;;4.62;100.00
70411;BME280;57832;46.038;11.398;2023-04-26T06:02:40;96818.03;;;4.92;100.00
70411;BME280;57832;46.038;11.398;2023-04-26T06:05:05;96822.13;;;5.13;100.00
70411;BME280;57832;46.038;11.398;2023-04-26T06:07:31;96799.94;;;6.11;100.00
70411;BME280;57832;46.038;11.398;2023-04-26T06:09:59;96774.66;;;11.59;100.00
70411;BME280;57832;46.038;11.398;2023-04-26T06:12:24;96760.88;;;14.38;100.00
70411;BME280;57832;46.038;11.398;2023-04-26T06:14:50;96760.28;;;16.43;100.00
70411;BME280;57832;46.038;11.398;2023-04-26T06:17:15;96767.19;;;16.63;100.00
70411;BME280;57832;46.038;11.398;2023-04-26T06:19:41;96765.72;;;17.47;100.00
70411;BME280;57832;46.038;11.398;2023-04-26T06:22:06;96764.34;;;18.52;100.00
70411;BME280;57832;46.038;11.398;2023-04-26T06:24:32;96763.44;;;19.30;80.94
70411;BME280;57832;46.038;11.398;2023-04-26T06:26:57;96764.84;;;17.99;93.86
70411;BME280;57832;46.038;11.398;2023-04-26T06:29:23;96754.06;;;18.74;82.32
70411;BME280;57832;46.038;11.398;2023-04-26T06:31:49;96760.59;;;20.70;67.75
70411;BME280;57832;46.038;11.398;2023-04-26T06:34:14;96754.38;;;19.09;69.98
70411;BME280;57832;46.038;11.398;2023-04-26T06:36:40;96755.88;;;21.37;59.40
70411;BME280;57832;46.038;11.398;2023-04-26T06:39:05;96757.41;;;21.64;55.02
70411;BME280;57832;46.038;11.398;2023-04-26T06:41:32;96745.88;;;22.20;44.55
70411;BME280;57832;46.038;11.398;2023-04-26T06:43:57;96753.13;;;21.72;45.09
70411;BME280;57832;46.038;11.398;2023-04-26T06:46:23;96746.09;;;22.45;45.49
70411;BME280;57832;46.038;11.398;2023-04-26T06:48:48;96756.97;;;22.40;42.52
70411;BME280;57832;46.038;11.398;2023-04-26T06:51:14;96752.97;;;23.18;38.57
70411;BME280;57832;46.038;11.398;2023-04-26T06:53:40;96743.16;;;22.80;36.79
70411;BME280;57832;46.038;11.398;2023-04-26T06:56:06;96741.50;;;23.63;36.77
70411;BME280;57832;46.038;11.398;2023-04-26T06:58:31;96736.59;;;24.52;36.54
70411;BME280;57832;46.038;11.398;2023-04-26T07:00:57;96738.16;;;24.65;37.00
70411;BME280;57832;46.038;11.398;2023-04-26T07:03:22;96737.34;;;24.77;35.13
70411;BME280;57832;46.038;11.398;2023-04-26T07:05:47;96746.34;;;25.54;34.28
70411;BME280;57832;46.038;11.398;2023-04-26T07:08:13;96735.25;;;26.55;34.86
70411;BME280;57832;46.038;11.398;2023-04-26T07:10:40;96732.50;;;26.51;32.34
70411;BME280;57832;46.038;11.398;2023-04-26T07:13:06;96732.44;;;25.36;32.61
70411;BME280;57832;46.038;11.398;2023-04-26T07:15:31;96729.69;;;26.64;30.64
70411;BME280;57832;46.038;11.398;2023-04-26T07:17:57;96736.78;;;25.41;30.73
70411;BME280;57832;46.038;11.398;2023-04-26T07:20:22;96728.06;;;25.92;29.72
70411;BME280;57832;46.038;11.398;2023-04-26T07:22:49;96726.94;;;25.32;29.50
70411;BME280;57832;46.038;11.398;2023-04-26T07:25:15;96730.41;;;26.61;28.30
70411;BME280;57832;46.038;11.398;2023-04-26T07:27:40;96725.16;;;26.32;28.49
70411;BME280;57832;46.038;11.398;2023-04-26T07:30:07;96719.22;;;28.07;28.07
70411;BME280;57832;46.038;11.398;2023-04-26T07:32:32;96717.84;;;28.16;27.50
70411;BME280;57832;46.038;11.398;2023-04-26T07:34:58;96708.78;;;28.89;25.34
70411;BME280;57832;46.038;11.398;2023-04-26T07:37:23;96709.66;;;27.86;25.77
70411;BME280;57832;46.038;11.398;2023-04-26T07:39:49;96700.94;;;29.48;24.58
70411;BME280;57832;46.038;11.398;2023-04-26T07:42:15;96710.31;;;27.79;27.27
70411;BME280;57832;46.038;11.398;2023-04-26T07:44:40;96710.22;;;27.29;27.08
70411;BME280;57832;46.038;11.398;2023-04-26T07:47:12;96712.81;;;28.45;26.43
70411;BME280;57832;46.038;11.398;2023-04-26T07:49:38;96699.78;;;28.78;26.28
70411;BME280;57832;46.038;11.398;2023-04-26T07:52:04;96702.31;;;27.17;26.13
70411;BME280;57832;46.038;11.398;2023-04-26T07:54:29;96704.47;;;28.54;26.38
70411;BME280;57832;46.038;11.398;2023-04-26T07:56:55;96701.44;;;30.13;24.87
70411;BME280;57832;46.038;11.398;2023-04-26T07:59:21;96696.34;;;28.81;24.47
70411;BME280;57832;46.038;11.398;2023-04-26T08:01:47;96693.22;;;30.62;23.92
70411;BME280;57832;46.038;11.398;2023-04-26T08:04:13;96688.00;;;31.30;24.24
70411;BME280;57832;46.038;11.398;2023-04-26T08:06:38;96687.69;;;29.84;23.73
70411;BME280;57832;46.038;11.398;2023-04-26T08:09:09;96682.63;;;27.13;25.92
70411;BME280;57832;46.038;11.398;2023-04-26T08:11:35;96673.63;;;27.98;24.52
70411;BME280;57832;46.038;11.398;2023-04-26T08:14:01;96670.19;;;32.05;22.92
70411;BME280;57832;46.038;11.398;2023-04-26T08:16:26;96671.28;;;29.59;23.14
70411;BME280;57832;46.038;11.398;2023-04-26T08:18:52;96664.22;;;26.56;24.77
70411;BME280;57832;46.038;11.398;2023-04-26T08:21:18;96657.06;;;31.93;21.08
70411;BME280;57832;46.038;11.398;2023-04-26T08:23:44;96665.88;;;30.11;21.95
70411;BME280;57832;46.038;11.398;2023-04-26T08:26:10;96659.38;;;31.22;21.02
70411;BME280;57832;46.038;11.398;2023-04-26T08:28:36;96656.25;;;32.14;20.62
70411;BME280;57832;46.038;11.398;2023-04-26T08:31:02;96655.91;;;31.54;20.51
70411;BME280;57832;46.038;11.398;2023-04-26T08:33:28;96657.75;;;30.99;21.71
70411;BME280;57832;46.038;11.398;2023-04-26T08:35:54;96648.47;;;32.34;20.92
70411;BME280;57832;46.038;11.398;2023-04-26T08:38:19;96648.28;;;32.81;20.65
70411;BME280;57832;46.038;11.398;2023-04-26T08:40:46;96637.44;;;33.86;19.40
70411;BME280;57832;46.038;11.398;2023-04-26T08:43:14;96647.59;;;34.86;19.15
70411;BME280;57832;46.038;11.398;2023-04-26T08:45:44;96638.56;;;32.80;20.50
70411;BME280;57832;46.038;11.398;2023-04-26T08:48:11;96643.91;;;31.84;20.51
70411;BME280;57832;46.038;11.398;2023-04-26T08:50:43;96643.00;;;32.41;20.24
70411;BME280;57832;46.038;11.398;2023-04-26T08:53:15;96643.88;;;34.41;18.89
70411;BME280;57832;46.038;11.398;2023-04-26T08:55:48;96637.66;;;33.05;19.81
70411;BME280;57832;46.038;11.398;2023-04-26T08:58:14;96629.03;;;35.04;18.65
70411;BME280;57832;46.038;11.398;2023-04-26T09:00:42;96635.53;;;33.83;18.94
70411;BME280;57832;46.038;11.398;2023-04-26T09:03:09;96632.94;;;35.30;19.78
70411;BME280;57832;46.038;11.398;2023-04-26T09:05:35;96621.97;;;35.38;19.32
70411;BME280;57832;46.038;11.398;2023-04-26T09:08:03;96620.09;;;35.78;19.20
70411;BME280;57832;46.038;11.398;2023-04-26T09:10:31;96621.72;;;34.05;19.70
70411;BME280;57832;46.038;11.398;2023-04-26T09:12:57;96625.88;;;33.78;18.61
70411;BME280;57832;46.038;11.398;2023-04-26T09:15:24;96620.56;;;33.08;19.50
70411;BME280;57832;46.038;11.398;2023-04-26T09:17:51;96617.34;;;34.49;20.11
70411;BME280;57832;46.038;11.398;2023-04-26T09:22:42;96604.63;;;35.72;19.05
70411;BME280;57832;46.038;11.398;2023-04-26T09:25:08;96604.91;;;35.06;19.51
70411;BME280;57832;46.038;11.398;2023-04-26T09:27:39;96597.19;;;36.16;18.89
70411;BME280;57832;46.038;11.398;2023-04-26T09:32:50;96597.00;;;34.57;19.05
70411;BME280;57832;46.038;11.398;2023-04-26T09:35:32;96581.84;;;34.87;18.94
70411;BME280;57832;46.038;11.398;2023-04-26T09:38:03;96583.69;;;33.07;20.56
70411;BME280;57832;46.038;11.398;2023-04-26T09:40:32;96580.53;;;34.03;20.44
70411;BME280;57832;46.038;11.398;2023-04-26T09:48:16;96569.00;;;38.59;18.53
70411;BME280;57832;46.038;11.398;2023-04-26T09:50:43;96562.94;;;37.38;18.33
70411;BME280;57832;46.038;11.398;2023-04-26T09:55:56;96562.94;;;34.73;19.56
70411;BME280;57832;46.038;11.398;2023-04-26T09:58:22;96564.00;;;34.82;18.87
70411;BME280;57832;46.038;11.398;2023-04-26T10:00:50;96552.97;;;38.32;17.02
70411;BME280;57832;46.038;11.398;2023-04-26T10:03:17;96545.66;;;35.58;17.08
70411;BME280;57832;46.038;11.398;2023-04-26T10:05:44;96550.41;;;38.12;16.33
70411;BME280;57832;46.038;11.398;2023-04-26T10:08:10;96540.72;;;36.33;16.17
70411;BME280;57832;46.038;11.398;2023-04-26T10:10:37;96545.00;;;33.82;16.69
70411;BME280;57832;46.038;11.398;2023-04-26T10:13:04;96536.00;;;33.89;16.97
70411;BME280;57832;46.038;11.398;2023-04-26T10:15:30;96536.97;;;36.96;16.24
70411;BME280;57832;46.038;11.398;2023-04-26T10:17:56;96528.38;;;38.03;15.92
70411;BME280;57832;46.038;11.398;2023-04-26T10:20:23;96520.81;;;37.02;15.84
70411;BME280;57832;46.038;11.398;2023-04-26T10:22:56;96522.59;;;37.71;17.06
70411;BME280;57832;46.038;11.398;2023-04-26T10:25:36;96517.88;;;35.43;16.82
70411;BME280;57832;46.038;11.398;2023-04-26T10:28:02;96518.38;;;34.01;15.77
70411;BME280;57832;46.038;11.398;2023-04-26T10:30:28;96525.47;;;33.57;16.29
70411;BME280;57832;46.038;11.398;2023-04-26T10:35:23;96505.78;;;35.64;15.42
70411;BME280;57832;46.038;11.398;2023-04-26T10:40:26;96504.56;;;36.45;16.63
70411;BME280;57832;46.038;11.398;2023-04-26T10:45:33;96490.69;;;34.92;16.83
70411;BME280;57832;46.038;11.398;2023-04-26T10:48:18;96490.63;;;31.40;18.14
70411;BME280;57832;46.038;11.398;2023-04-26T10:59:14;96470.16;;;37.73;15.89
70411;BME280;57832;46.038;11.398;2023-04-26T11:01:40;96467.63;;;36.41;17.01
70411;BME280;57832;46.038;11.398;2023-04-26T11:04:07;96455.44;;;37.41;16.86
70411;BME280;57832;46.038;11.398;2023-04-26T11:06:49;96452.41;;;34.52;16.97
70411;BME280;57832;46.038;11.398;2023-04-26T11:09:35;96449.88;;;37.57;16.07
70411;BME280;57832;46.038;11.398;2023-04-26T11:12:09;96442.56;;;34.85;17.49
70411;BME280;57832;46.038;11.398;2023-04-26T11:14:36;96443.28;;;37.84;17.21
70411;BME280;57832;46.038;11.398;2023-04-26T11:17:05;96452.06;;;33.91;17.32
70411;BME280;57832;46.038;11.398;2023-04-26T11:19:31;96434.34;;;35.73;17.00
70411;BME280;57832;46.038;11.398;2023-04-26T11:22:00;96432.81;;;37.53;15.05
70411;BME280;57832;46.038;11.398;2023-04-26T11:24:29;96432.06;;;36.08;15.54
70411;BME280;57832;46.038;11.398;2023-04-26T11:26:55;96424.00;;;36.70;16.54
70411;BME280;57832;46.038;11.398;2023-04-26T11:29:20;96413.84;;;36.71;16.77
70411;BME280;57832;46.038;11.398;2023-04-26T11:31:57;96416.06;;;38.19;15.41
70411;BME280;57832;46.038;11.398;2023-04-26T11:34:35;96413.19;;;37.12;15.64
70411;BME280;57832;46.038;11.398;2023-04-26T11:37:03;96421.63;;;37.90;16.94
70411;BME280;57832;46.038;11.398;2023-04-26T11:39:32;96415.66;;;37.23;16.58
70411;BME280;57832;46.038;11.398;2023-04-26T11:42:09;96419.13;;;38.08;15.94
70411;BME280;57832;46.038;11.398;2023-04-26T11:44:35;96414.69;;;37.72;15.85
70411;BME280;57832;46.038;11.398;2023-04-26T11:47:02;96408.94;;;38.22;15.84
70411;BME280;57832;46.038;11.398;2023-04-26T11:49:32;96405.31;;;35.62;15.84
70411;BME280;57832;46.038;11.398;2023-04-26T11:51:58;96406.31;;;35.52;15.29
70411;BME280;57832;46.038;11.398;2023-04-26T11:54:28;96408.38;;;37.88;14.83
70411;BME280;57832;46.038;11.398;2023-04-26T11:56:55;96405.88;;;37.94;15.34
70411;BME280;57832;46.038;11.398;2023-04-26T11:59:25;96399.63;;;37.93;16.35
70411;BME280;57832;46.038;11.398;2023-04-26T12:01:51;96397.88;;;37.31;15.73
70411;BME280;57832;46.038;11.398;2023-04-26T12:04:17;96398.22;;;38.02;15.64
70411;BME280;57832;46.038;11.398;2023-04-26T12:06:45;96393.72;;;36.64;16.13
70411;BME280;57832;46.038;11.398;2023-04-26T12:09:12;96395.50;;;36.22;16.48
70411;BME280;57832;46.038;11.398;2023-04-26T12:11:38;96389.53;;;39.47;14.95
70411;BME280;57832;46.038;11.398;2023-04-26T12:14:04;96393.72;;;38.21;15.33
70411;BME280;57832;46.038;11.398;2023-04-26T12:16:30;96390.44;;;34.59;15.34
70411;BME280;57832;46.038;11.398;2023-04-26T12:18:56;96390.63;;;36.62;15.07
70411;BME280;57832;46.038;11.398;2023-04-26T12:21:23;96385.47;;;36.97;16.00
70411;BME280;57832;46.038;11.398;2023-04-26T12:23:49;96381.00;;;35.31;16.22
70411;BME280;57832;46.038;11.398;2023-04-26T12:26:15;96384.69;;;35.21;15.85
70411;BME280;57832;46.038;11.398;2023-04-26T12:28:41;96385.91;;;37.25;16.22
70411;BME280;57832;46.038;11.398;2023-04-26T12:31:07;96384.72;;;39.92;14.71
70411;BME280;57832;46.038;11.398;2023-04-26T12:33:33;96386.25;;;38.21;15.53
70411;BME280;57832;46.038;11.398;2023-04-26T12:36:09;96372.03;;;36.57;15.22
70411;BME280;57832;46.038;11.398;2023-04-26T12:38:35;96370.47;;;36.73;14.91
70411;BME280;57832;46.038;11.398;2023-04-26T12:41:01;96370.06;;;35.35;16.32
70411;BME280;57832;46.038;11.398;2023-04-26T12:43:27;96369.66;;;36.43;16.12
70411;BME280;57832;46.038;11.398;2023-04-26T12:45:52;96364.38;;;35.06;15.76
70411;BME280;57832;46.038;11.398;2023-04-26T12:48:18;96369.28;;;31.87;17.90
70411;BME280;57832;46.038;11.398;2023-04-26T12:50:43;96362.25;;;30.87;19.98
70411;BME280;57832;46.038;11.398;2023-04-26T12:53:10;96371.94;;;32.54;19.70
70411;BME280;57832;46.038;11.398;2023-04-26T12:55:35;96360.31;;;34.46;19.97
70411;BME280;57832;46.038;11.398;2023-04-26T12:58:01;96366.56;;;34.91;18.00
70411;BME280;57832;46.038;11.398;2023-04-26T13:00:27;96364.66;;;35.88;17.01
70411;BME280;57832;46.038;11.398;2023-04-26T13:02:53;96368.66;;;34.36;18.61
70411;BME280;57832;46.038;11.398;2023-04-26T13:05:18;96371.22;;;33.30;18.78
70411;BME280;57832;46.038;11.398;2023-04-26T13:07:44;96364.56;;;37.20;16.39
70411;BME280;57832;46.038;11.398;2023-04-26T13:10:10;96370.09;;;35.31;17.85
70411;BME280;57832;46.038;11.398;2023-04-26T13:12:39;96362.41;;;36.53;16.52
70411;BME280;57832;46.038;11.398;2023-04-26T13:15:06;96358.16;;;36.81;17.15
70411;BME280;57832;46.038;11.398;2023-04-26T13:17:33;96357.69;;;36.04;18.48